sensor_id;sensor_type;location;lat;lon;timestamp;P1;durP1;ratioP1;P2;durP2;ratioP2
54745;SDS011;40640;48.130;11.356;2023-05-10T00:01:40;1.85;;;1.10;;
54745;SDS011;40640;48.130;11.356;2023-05-10T00:05:43;1.38;;;0.98;;
54745;SDS011;40640;48.130;11.356;2023-05-10T00:09:46;1.75;;;0.70;;
54745;SDS011;40640;48.130;11.356;2023-05-10T00:13:48;4.50;;;0.85;;
54745;SDS011;40640;48.130;11.356;2023-05-10T00:17:53;3.97;;;0.75;;
54745;SDS011;40640;48.130;11.356;2023-05-10T00:21:56;0.80;;;0.77;;
54745;SDS011;40640;48.130;11.356;2023-05-10T00:25:58;1.63;;;0.65;;
54745;SDS011;40640;48.130;11.356;2023-05-10T00:30:01;0.90;;;0.63;;
54745;SDS011;40640;48.130;11.356;2023-05-10T00:34:05;0.98;;;0.63;;
54745;SDS011;40640;48.130;11.356;2023-05-10T00:38:08;0.82;;;0.73;;
54745;SDS011;40640;48.130;11.356;2023-05-10T00:42:11;0.95;;;0.73;;
54745;SDS011;40640;48.130;11.356;2023-05-10T00:46:15;0.70;;;0.70;;
54745;SDS011;40640;48.130;11.356;2023-05-10T00:50:19;1.48;;;0.70;;
54745;SDS011;40640;48.130;11.356;2023-05-10T00:54:23;0.60;;;0.55;;
54745;SDS011;40640;48.130;11.356;2023-05-10T00:58:26;0.57;;;0.50;;
54745;SDS011;40640;48.130;11.356;2023-05-10T01:02:29;0.60;;;0.55;;
54745;SDS011;40640;48.130;11.356;2023-05-10T01:06:34;0.60;;;0.60;;
54745;SDS011;40640;48.130;11.356;2023-05-10T01:10:36;0.80;;;0.60;;
54745;SDS011;40640;48.130;11.356;2023-05-10T01:14:40;0.63;;;0.63;;
54745;SDS011;40640;48.130;11.356;2023-05-10T01:18:42;0.82;;;0.57;;
54745;SDS011;40640;48.130;11.356;2023-05-10T01:23:10;0.85;;;0.45;;
54745;SDS011;40640;48.130;11.356;2023-05-10T01:27:41;3.20;;;0.63;;
54745;SDS011;40640;48.130;11.356;2023-05-10T01:32:01;0.85;;;0.50;;
54745;SDS011;40640;48.130;11.356;2023-05-10T01:36:27;0.90;;;0.40;;
54745;SDS011;40640;48.130;11.356;2023-05-10T01:40:35;0.70;;;0.50;;
54745;SDS011;40640;48.130;11.356;2023-05-10T01:44:42;0.60;;;0.60;;
54745;SDS011;40640;48.130;11.356;2023-05-10T01:48:54;0.55;;;0.40;;
54745;SDS011;40640;48.130;11.356;2023-05-10T01:53:01;1.13;;;0.52;;
54745;SDS011;40640;48.130;11.356;2023-05-10T01:57:05;0.60;;;0.60;;
54745;SDS011;40640;48.130;11.356;2023-05-10T02:01:11;0.98;;;0.50;;
54745;SDS011;40640;48.130;11.356;2023-05-10T02:05:17;2.00;;;0.90;;
54745;SDS011;40640;48.130;11.356;2023-05-10T02:09:21;0.50;;;0.47;;
54745;SDS011;40640;48.130;11.356;2023-05-10T02:13:25;4.22;;;0.65;;
54745;SDS011;40640;48.130;11.356;2023-05-10T02:17:30;1.10;;;0.57;;
54745;SDS011;40640;48.130;11.356;2023-05-10T02:21:36;0.68;;;0.68;;
54745;SDS011;40640;48.130;11.356;2023-05-10T02:25:40;2.17;;;0.65;;
54745;SDS011;40640;48.130;11.356;2023-05-10T02:29:45;1.60;;;0.70;;
54745;SDS011;40640;48.130;11.356;2023-05-10T02:33:49;1.27;;;0.75;;
54745;SDS011;40640;48.130;11.356;2023-05-10T02:37:55;3.00;;;0.63;;
54745;SDS011;40640;48.130;11.356;2023-05-10T02:46:03;0.73;;;0.60;;
54745;SDS011;40640;48.130;11.356;2023-05-10T02:50:06;0.75;;;0.63;;
54745;SDS011;40640;48.130;11.356;2023-05-10T02:54:11;0.95;;;0.50;;
54745;SDS011;40640;48.130;11.356;2023-05-10T02:58:22;0.63;;;0.63;;
54745;SDS011;40640;48.130;11.356;2023-05-10T03:02:25;2.50;;;0.63;;
54745;SDS011;40640;48.130;11.356;2023-05-10T03:06:28;0.80;;;0.65;;
54745;SDS011;40640;48.130;11.356;2023-05-10T03:10:32;1.58;;;0.70;;
54745;SDS011;40640;48.130;11.356;2023-05-10T03:14:42;4.03;;;0.80;;
54745;SDS011;40640;48.130;11.356;2023-05-10T03:18:54;0.80;;;0.60;;
54745;SDS011;40640;48.130;11.356;2023-05-10T03:23:02;2.53;;;0.70;;
54745;SDS011;40640;48.130;11.356;2023-05-10T03:27:10;2.65;;;0.60;;
54745;SDS011;40640;48.130;11.356;2023-05-10T03:31:17;2.05;;;0.82;;
54745;SDS011;40640;48.130;11.356;2023-05-10T03:35:20;2.47;;;0.40;;
54745;SDS011;40640;48.130;11.356;2023-05-10T03:39:23;1.48;;;0.52;;
54745;SDS011;40640;48.130;11.356;2023-05-10T03:43:32;2.67;;;0.77;;
54745;SDS011;40640;48.130;11.356;2023-05-10T03:47:35;0.57;;;0.50;;
54745;SDS011;40640;48.130;11.356;2023-05-10T03:51:38;0.40;;;0.30;;
54745;SDS011;40640;48.130;11.356;2023-05-10T03:55:41;0.43;;;0.38;;
54745;SDS011;40640;48.130;11.356;2023-05-10T03:59:46;0.40;;;0.40;;
54745;SDS011;40640;48.130;11.356;2023-05-10T04:03:48;1.00;;;0.47;;
54745;SDS011;40640;48.130;11.356;2023-05-10T04:07:51;3.47;;;0.40;;
54745;SDS011;40640;48.130;11.356;2023-05-10T04:11:54;2.40;;;0.70;;
54745;SDS011;40640;48.130;11.356;2023-05-10T04:15:58;0.35;;;0.30;;
54745;SDS011;40640;48.130;11.356;2023-05-10T04:20:01;0.70;;;0.30;;
54745;SDS011;40640;48.130;11.356;2023-05-10T04:24:04;0.30;;;0.30;;
54745;SDS011;40640;48.130;11.356;2023-05-10T04:28:07;0.65;;;0.40;;
54745;SDS011;40640;48.130;11.356;2023-05-10T04:32:12;0.35;;;0.30;;
54745;SDS011;40640;48.130;11.356;2023-05-10T04:36:15;0.10;;;0.10;;
54745;SDS011;40640;48.130;11.356;2023-05-10T04:40:17;0.20;;;0.20;;
54745;SDS011;40640;48.130;11.356;2023-05-10T04:44:20;0.93;;;0.20;;
54745;SDS011;40640;48.130;11.356;2023-05-10T04:48:25;2.17;;;0.20;;
54745;SDS011;40640;48.130;11.356;2023-05-10T04:52:28;0.68;;;0.32;;
54745;SDS011;40640;48.130;11.356;2023-05-10T04:56:30;0.10;;;0.10;;
54745;SDS011;40640;48.130;11.356;2023-05-10T05:00:33;0.32;;;0.30;;
54745;SDS011;40640;48.130;11.356;2023-05-10T05:04:37;1.45;;;0.20;;
54745;SDS011;40640;48.130;11.356;2023-05-10T05:08:40;0.95;;;0.25;;
54745;SDS011;40640;48.130;11.356;2023-05-10T05:12:43;0.85;;;0.32;;
54745;SDS011;40640;48.130;11.356;2023-05-10T05:16:46;0.28;;;0.28;;
54745;SDS011;40640;48.130;11.356;2023-05-10T05:20:50;0.15;;;0.13;;
54745;SDS011;40640;48.130;11.356;2023-05-10T05:24:53;0.20;;;0.20;;
54745;SDS011;40640;48.130;11.356;2023-05-10T05:28:56;0.20;;;0.20;;
54745;SDS011;40640;48.130;11.356;2023-05-10T05:32:59;0.75;;;0.13;;
54745;SDS011;40640;48.130;11.356;2023-05-10T05:37:03;1.17;;;0.20;;
54745;SDS011;40640;48.130;11.356;2023-05-10T05:41:06;0.73;;;0.20;;
54745;SDS011;40640;48.130;11.356;2023-05-10T05:45:09;0.20;;;0.10;;
54745;SDS011;40640;48.130;11.356;2023-05-10T05:49:14;0.57;;;0.30;;
54745;SDS011;40640;48.130;11.356;2023-05-10T05:53:18;0.98;;;0.20;;
54745;SDS011;40640;48.130;11.356;2023-05-10T05:57:21;0.20;;;0.20;;
54745;SDS011;40640;48.130;11.356;2023-05-10T06:01:24;0.32;;;0.30;;
54745;SDS011;40640;48.130;11.356;2023-05-10T06:05:27;0.82;;;0.40;;
54745;SDS011;40640;48.130;11.356;2023-05-10T06:09:31;0.52;;;0.28;;
54745;SDS011;40640;48.130;11.356;2023-05-10T06:13:34;2.42;;;0.40;;
54745;SDS011;40640;48.130;11.356;2023-05-10T06:17:37;0.40;;;0.32;;
54745;SDS011;40640;48.130;11.356;2023-05-10T06:21:40;0.55;;;0.40;;
54745;SDS011;40640;48.130;11.356;2023-05-10T06:25:44;8.43;;;0.68;;
54745;SDS011;40640;48.130;11.356;2023-05-10T06:29:47;0.47;;;0.30;;
54745;SDS011;40640;48.130;11.356;2023-05-10T06:33:54;1.45;;;0.30;;
54745;SDS011;40640;48.130;11.356;2023-05-10T06:37:57;0.77;;;0.50;;
54745;SDS011;40640;48.130;11.356;2023-05-10T06:42:01;2.58;;;0.60;;
54745;SDS011;40640;48.130;11.356;2023-05-10T06:46:07;3.83;;;0.50;;
54745;SDS011;40640;48.130;11.356;2023-05-10T06:50:10;0.93;;;0.50;;
54745;SDS011;40640;48.130;11.356;2023-05-10T06:54:13;2.08;;;0.60;;
54745;SDS011;40640;48.130;11.356;2023-05-10T06:58:17;0.88;;;0.55;;
54745;SDS011;40640;48.130;11.356;2023-05-10T07:02:20;3.90;;;0.57;;
54745;SDS011;40640;48.130;11.356;2023-05-10T07:06:23;1.23;;;0.52;;
54745;SDS011;40640;48.130;11.356;2023-05-10T07:10:34;0.70;;;0.45;;
54745;SDS011;40640;48.130;11.356;2023-05-10T07:14:38;2.25;;;0.47;;
54745;SDS011;40640;48.130;11.356;2023-05-10T07:18:41;0.68;;;0.60;;
54745;SDS011;40640;48.130;11.356;2023-05-10T07:22:44;2.40;;;0.70;;
54745;SDS011;40640;48.130;11.356;2023-05-10T07:26:47;5.60;;;0.60;;
54745;SDS011;40640;48.130;11.356;2023-05-10T07:30:51;1.48;;;0.57;;
54745;SDS011;40640;48.130;11.356;2023-05-10T07:34:54;1.98;;;0.40;;
54745;SDS011;40640;48.130;11.356;2023-05-10T07:38:57;8.00;;;0.85;;
54745;SDS011;40640;48.130;11.356;2023-05-10T07:43:00;1.00;;;0.50;;
54745;SDS011;40640;48.130;11.356;2023-05-10T07:47:05;1.25;;;0.40;;
54745;SDS011;40640;48.130;11.356;2023-05-10T07:51:07;0.70;;;0.40;;
54745;SDS011;40640;48.130;11.356;2023-05-10T07:55:11;2.08;;;0.68;;
54745;SDS011;40640;48.130;11.356;2023-05-10T07:59:14;0.60;;;0.50;;
54745;SDS011;40640;48.130;11.356;2023-05-10T08:03:20;2.17;;;0.70;;
54745;SDS011;40640;48.130;11.356;2023-05-10T08:07:24;0.40;;;0.40;;
54745;SDS011;40640;48.130;11.356;2023-05-10T08:11:27;0.43;;;0.30;;
54745;SDS011;40640;48.130;11.356;2023-05-10T08:15:30;0.90;;;0.50;;
54745;SDS011;40640;48.130;11.356;2023-05-10T08:19:34;1.08;;;0.40;;
54745;SDS011;40640;48.130;11.356;2023-05-10T08:23:37;1.90;;;0.52;;
54745;SDS011;40640;48.130;11.356;2023-05-10T08:27:39;3.25;;;0.50;;
54745;SDS011;40640;48.130;11.356;2023-05-10T08:31:42;4.47;;;0.45;;
54745;SDS011;40640;48.130;11.356;2023-05-10T08:35:47;0.40;;;0.30;;
54745;SDS011;40640;48.130;11.356;2023-05-10T08:39:49;0.73;;;0.40;;
54745;SDS011;40640;48.130;11.356;2023-05-10T08:43:53;2.40;;;0.43;;
54745;SDS011;40640;48.130;11.356;2023-05-10T08:47:56;0.30;;;0.30;;
54745;SDS011;40640;48.130;11.356;2023-05-10T08:52:03;1.13;;;0.60;;
54745;SDS011;40640;48.130;11.356;2023-05-10T08:56:08;0.65;;;0.47;;
54745;SDS011;40640;48.130;11.356;2023-05-10T09:00:12;2.92;;;0.45;;
54745;SDS011;40640;48.130;11.356;2023-05-10T09:04:16;0.35;;;0.30;;
54745;SDS011;40640;48.130;11.356;2023-05-10T09:08:21;1.17;;;0.50;;
54745;SDS011;40640;48.130;11.356;2023-05-10T09:12:26;1.63;;;0.50;;
54745;SDS011;40640;48.130;11.356;2023-05-10T09:16:29;1.98;;;0.63;;
54745;SDS011;40640;48.130;11.356;2023-05-10T09:20:32;0.63;;;0.40;;
54745;SDS011;40640;48.130;11.356;2023-05-10T09:24:36;2.05;;;0.60;;
54745;SDS011;40640;48.130;11.356;2023-05-10T09:28:50;1.20;;;0.63;;
54745;SDS011;40640;48.130;11.356;2023-05-10T09:32:55;2.28;;;0.75;;
54745;SDS011;40640;48.130;11.356;2023-05-10T09:36:59;1.63;;;0.63;;
54745;SDS011;40640;48.130;11.356;2023-05-10T09:41:14;1.13;;;0.50;;
54745;SDS011;40640;48.130;11.356;2023-05-10T09:45:18;3.50;;;0.40;;
54745;SDS011;40640;48.130;11.356;2023-05-10T09:49:21;1.02;;;0.50;;
54745;SDS011;40640;48.130;11.356;2023-05-10T09:53:24;0.65;;;0.60;;
54745;SDS011;40640;48.130;11.356;2023-05-10T09:57:29;0.45;;;0.35;;
54745;SDS011;40640;48.130;11.356;2023-05-10T10:01:34;1.30;;;0.60;;
54745;SDS011;40640;48.130;11.356;2023-05-10T10:05:38;3.35;;;0.60;;
54745;SDS011;40640;48.130;11.356;2023-05-10T10:09:43;0.55;;;0.35;;
54745;SDS011;40640;48.130;11.356;2023-05-10T10:13:47;0.98;;;0.32;;
54745;SDS011;40640;48.130;11.356;2023-05-10T10:17:51;1.50;;;0.80;;
54745;SDS011;40640;48.130;11.356;2023-05-10T10:21:55;1.52;;;1.10;;
54745;SDS011;40640;48.130;11.356;2023-05-10T10:25:57;0.60;;;0.60;;
54745;SDS011;40640;48.130;11.356;2023-05-10T10:30:04;1.38;;;0.75;;
54745;SDS011;40640;48.130;11.356;2023-05-10T10:34:19;1.42;;;0.73;;
54745;SDS011;40640;48.130;11.356;2023-05-10T10:38:55;3.65;;;0.80;;
54745;SDS011;40640;48.130;11.356;2023-05-10T10:43:21;4.13;;;0.75;;
54745;SDS011;40640;48.130;11.356;2023-05-10T10:47:27;0.88;;;0.82;;
54745;SDS011;40640;48.130;11.356;2023-05-10T10:51:36;4.60;;;0.65;;
54745;SDS011;40640;48.130;11.356;2023-05-10T10:55:45;3.72;;;0.77;;
54745;SDS011;40640;48.130;11.356;2023-05-10T10:59:49;3.40;;;0.90;;
54745;SDS011;40640;48.130;11.356;2023-05-10T11:08:25;1.23;;;0.80;;
54745;SDS011;40640;48.130;11.356;2023-05-10T11:16:40;2.20;;;0.70;;
54745;SDS011;40640;48.130;11.356;2023-05-10T11:20:46;5.40;;;1.35;;
54745;SDS011;40640;48.130;11.356;2023-05-10T11:24:56;2.50;;;0.93;;
54745;SDS011;40640;48.130;11.356;2023-05-10T11:28:59;1.85;;;0.95;;
54745;SDS011;40640;48.130;11.356;2023-05-10T11:33:04;1.05;;;0.90;;
54745;SDS011;40640;48.130;11.356;2023-05-10T11:37:09;4.90;;;1.20;;
54745;SDS011;40640;48.130;11.356;2023-05-10T11:41:12;5.72;;;1.50;;
54745;SDS011;40640;48.130;11.356;2023-05-10T11:45:15;6.07;;;1.15;;
54745;SDS011;40640;48.130;11.356;2023-05-10T11:49:18;2.25;;;1.20;;
54745;SDS011;40640;48.130;11.356;2023-05-10T11:53:24;2.67;;;0.98;;
54745;SDS011;40640;48.130;11.356;2023-05-10T11:57:29;3.35;;;1.00;;
54745;SDS011;40640;48.130;11.356;2023-05-10T12:01:32;1.00;;;0.90;;
54745;SDS011;40640;48.130;11.356;2023-05-10T12:05:36;4.07;;;1.00;;
54745;SDS011;40640;48.130;11.356;2023-05-10T12:09:44;1.75;;;1.08;;
54745;SDS011;40640;48.130;11.356;2023-05-10T12:14:04;2.35;;;1.20;;
54745;SDS011;40640;48.130;11.356;2023-05-10T12:18:08;1.10;;;0.90;;
54745;SDS011;40640;48.130;11.356;2023-05-10T12:22:11;3.30;;;1.02;;
54745;SDS011;40640;48.130;11.356;2023-05-10T12:26:15;1.20;;;0.98;;
54745;SDS011;40640;48.130;11.356;2023-05-10T12:30:19;1.35;;;0.95;;
54745;SDS011;40640;48.130;11.356;2023-05-10T12:34:26;4.45;;;1.80;;
54745;SDS011;40640;48.130;11.356;2023-05-10T12:38:32;1.88;;;1.15;;
54745;SDS011;40640;48.130;11.356;2023-05-10T12:42:38;1.92;;;1.20;;
54745;SDS011;40640;48.130;11.356;2023-05-10T12:46:41;3.75;;;1.23;;
54745;SDS011;40640;48.130;11.356;2023-05-10T12:50:44;4.70;;;1.05;;
54745;SDS011;40640;48.130;11.356;2023-05-10T12:54:47;1.45;;;0.90;;
54745;SDS011;40640;48.130;11.356;2023-05-10T12:58:51;1.73;;;1.05;;
54745;SDS011;40640;48.130;11.356;2023-05-10T13:02:54;5.50;;;1.10;;
54745;SDS011;40640;48.130;11.356;2023-05-10T13:06:58;1.77;;;1.20;;
54745;SDS011;40640;48.130;11.356;2023-05-10T13:11:01;2.15;;;0.82;;
54745;SDS011;40640;48.130;11.356;2023-05-10T13:15:07;2.50;;;1.10;;
54745;SDS011;40640;48.130;11.356;2023-05-10T13:19:10;3.50;;;1.60;;
54745;SDS011;40640;48.130;11.356;2023-05-10T13:23:13;5.43;;;1.70;;
54745;SDS011;40640;48.130;11.356;2023-05-10T13:27:16;2.25;;;1.50;;
54745;SDS011;40640;48.130;11.356;2023-05-10T13:31:20;8.10;;;1.13;;
54745;SDS011;40640;48.130;11.356;2023-05-10T13:35:23;5.95;;;1.90;;
54745;SDS011;40640;48.130;11.356;2023-05-10T13:39:26;2.67;;;1.40;;
54745;SDS011;40640;48.130;11.356;2023-05-10T13:43:32;6.45;;;1.95;;
54745;SDS011;40640;48.130;11.356;2023-05-10T13:47:37;7.38;;;2.20;;
54745;SDS011;40640;48.130;11.356;2023-05-10T13:51:39;3.33;;;1.80;;
54745;SDS011;40640;48.130;11.356;2023-05-10T13:55:42;2.53;;;1.77;;
54745;SDS011;40640;48.130;11.356;2023-05-10T13:59:45;11.73;;;1.40;;
54745;SDS011;40640;48.130;11.356;2023-05-10T14:03:49;2.17;;;1.40;;
54745;SDS011;40640;48.130;11.356;2023-05-10T14:07:53;3.42;;;1.13;;
54745;SDS011;40640;48.130;11.356;2023-05-10T14:11:56;2.10;;;1.10;;
54745;SDS011;40640;48.130;11.356;2023-05-10T14:15:58;0.88;;;0.75;;
54745;SDS011;40640;48.130;11.356;2023-05-10T14:20:04;2.30;;;0.90;;
54745;SDS011;40640;48.130;11.356;2023-05-10T14:24:07;1.20;;;0.97;;
54745;SDS011;40640;48.130;11.356;2023-05-10T14:28:10;1.08;;;0.77;;
54745;SDS011;40640;48.130;11.356;2023-05-10T14:32:13;2.65;;;0.95;;
54745;SDS011;40640;48.130;11.356;2023-05-10T14:36:18;4.45;;;0.85;;
54745;SDS011;40640;48.130;11.356;2023-05-10T14:40:21;1.95;;;0.80;;
54745;SDS011;40640;48.130;11.356;2023-05-10T14:44:24;1.38;;;0.90;;
54745;SDS011;40640;48.130;11.356;2023-05-10T14:48:27;1.23;;;0.70;;
54745;SDS011;40640;48.130;11.356;2023-05-10T14:52:31;2.10;;;0.98;;
54745;SDS011;40640;48.130;11.356;2023-05-10T14:56:34;0.80;;;0.80;;
54745;SDS011;40640;48.130;11.356;2023-05-10T15:00:40;1.83;;;0.90;;
54745;SDS011;40640;48.130;11.356;2023-05-10T15:04:43;1.70;;;1.00;;
54745;SDS011;40640;48.130;11.356;2023-05-10T15:08:48;1.85;;;1.05;;
54745;SDS011;40640;48.130;11.356;2023-05-10T15:12:51;1.75;;;1.13;;
54745;SDS011;40640;48.130;11.356;2023-05-10T15:16:54;2.08;;;0.75;;
54745;SDS011;40640;48.130;11.356;2023-05-10T15:20:57;3.83;;;0.77;;
54745;SDS011;40640;48.130;11.356;2023-05-10T15:25:01;1.52;;;0.90;;
54745;SDS011;40640;48.130;11.356;2023-05-10T15:29:04;1.00;;;0.88;;
54745;SDS011;40640;48.130;11.356;2023-05-10T15:33:07;1.80;;;1.13;;
54745;SDS011;40640;48.130;11.356;2023-05-10T15:37:10;2.75;;;1.45;;
54745;SDS011;40640;48.130;11.356;2023-05-10T15:41:14;1.27;;;0.95;;
54745;SDS011;40640;48.130;11.356;2023-05-10T15:45:17;1.40;;;1.00;;
54745;SDS011;40640;48.130;11.356;2023-05-10T15:49:20;1.98;;;1.08;;
54745;SDS011;40640;48.130;11.356;2023-05-10T15:53:23;1.63;;;1.10;;
54745;SDS011;40640;48.130;11.356;2023-05-10T15:57:27;1.60;;;1.10;;
54745;SDS011;40640;48.130;11.356;2023-05-10T16:01:30;3.00;;;0.95;;
54745;SDS011;40640;48.130;11.356;2023-05-10T16:05:33;2.20;;;1.35;;
54745;SDS011;40640;48.130;11.356;2023-05-10T16:09:36;1.58;;;1.10;;
54745;SDS011;40640;48.130;11.356;2023-05-10T16:13:40;2.58;;;1.20;;
54745;SDS011;40640;48.130;11.356;2023-05-10T16:17:43;3.25;;;1.13;;
54745;SDS011;40640;48.130;11.356;2023-05-10T16:21:46;2.45;;;1.20;;
54745;SDS011;40640;48.130;11.356;2023-05-10T16:25:49;3.15;;;1.40;;
54745;SDS011;40640;48.130;11.356;2023-05-10T16:29:53;1.17;;;1.05;;
54745;SDS011;40640;48.130;11.356;2023-05-10T16:33:56;6.22;;;1.67;;
54745;SDS011;40640;48.130;11.356;2023-05-10T16:37:58;4.10;;;0.73;;
54745;SDS011;40640;48.130;11.356;2023-05-10T16:42:01;0.50;;;0.50;;
54745;SDS011;40640;48.130;11.356;2023-05-10T16:46:09;2.75;;;1.08;;
54745;SDS011;40640;48.130;11.356;2023-05-10T16:50:13;0.75;;;0.75;;
54745;SDS011;40640;48.130;11.356;2023-05-10T16:54:18;2.92;;;1.05;;
54745;SDS011;40640;48.130;11.356;2023-05-10T16:58:21;2.20;;;0.80;;
54745;SDS011;40640;48.130;11.356;2023-05-10T17:02:26;0.80;;;0.60;;
54745;SDS011;40640;48.130;11.356;2023-05-10T17:06:29;1.17;;;0.70;;
54745;SDS011;40640;48.130;11.356;2023-05-10T17:10:32;1.55;;;0.70;;
54745;SDS011;40640;48.130;11.356;2023-05-10T17:14:35;1.45;;;0.90;;
54745;SDS011;40640;48.130;11.356;2023-05-10T17:18:40;1.92;;;0.70;;
54745;SDS011;40640;48.130;11.356;2023-05-10T17:22:43;1.33;;;1.17;;
54745;SDS011;40640;48.130;11.356;2023-05-10T17:26:46;1.30;;;0.90;;
54745;SDS011;40640;48.130;11.356;2023-05-10T17:30:54;2.78;;;1.15;;
54745;SDS011;40640;48.130;11.356;2023-05-10T17:34:59;2.97;;;1.20;;
54745;SDS011;40640;48.130;11.356;2023-05-10T17:39:02;2.78;;;1.70;;
54745;SDS011;40640;48.130;11.356;2023-05-10T17:43:05;4.30;;;1.90;;
54745;SDS011;40640;48.130;11.356;2023-05-10T17:47:08;1.95;;;1.05;;
54745;SDS011;40640;48.130;11.356;2023-05-10T17:51:12;1.35;;;1.08;;
54745;SDS011;40640;48.130;11.356;2023-05-10T17:55:15;2.22;;;1.20;;
54745;SDS011;40640;48.130;11.356;2023-05-10T17:59:19;2.83;;;1.30;;
54745;SDS011;40640;48.130;11.356;2023-05-10T18:03:22;3.17;;;1.90;;
54745;SDS011;40640;48.130;11.356;2023-05-10T18:07:27;2.58;;;1.40;;
54745;SDS011;40640;48.130;11.356;2023-05-10T18:11:30;2.50;;;1.10;;
54745;SDS011;40640;48.130;11.356;2023-05-10T18:15:33;2.00;;;1.17;;
54745;SDS011;40640;48.130;11.356;2023-05-10T18:19:36;2.13;;;1.40;;
54745;SDS011;40640;48.130;11.356;2023-05-10T18:23:40;3.28;;;1.80;;
54745;SDS011;40640;48.130;11.356;2023-05-10T18:27:43;2.58;;;1.63;;
54745;SDS011;40640;48.130;11.356;2023-05-10T18:31:46;2.33;;;1.48;;
54745;SDS011;40640;48.130;11.356;2023-05-10T18:35:49;3.20;;;1.52;;
54745;SDS011;40640;48.130;11.356;2023-05-10T18:39:53;2.53;;;1.70;;
54745;SDS011;40640;48.130;11.356;2023-05-10T18:43:56;1.73;;;1.40;;
54745;SDS011;40640;48.130;11.356;2023-05-10T18:47:59;2.53;;;1.80;;
54745;SDS011;40640;48.130;11.356;2023-05-10T18:52:02;3.95;;;1.67;;
54745;SDS011;40640;48.130;11.356;2023-05-10T18:56:07;5.63;;;1.73;;
54745;SDS011;40640;48.130;11.356;2023-05-10T19:00:10;3.20;;;1.65;;
54745;SDS011;40640;48.130;11.356;2023-05-10T19:04:14;5.68;;;1.70;;
54745;SDS011;40640;48.130;11.356;2023-05-10T19:08:17;2.28;;;1.67;;
54745;SDS011;40640;48.130;11.356;2023-05-10T19:12:21;2.05;;;1.80;;
54745;SDS011;40640;48.130;11.356;2023-05-10T19:16:24;4.72;;;1.70;;
54745;SDS011;40640;48.130;11.356;2023-05-10T19:20:29;4.35;;;2.05;;
54745;SDS011;40640;48.130;11.356;2023-05-10T19:24:32;2.58;;;1.73;;
54745;SDS011;40640;48.130;11.356;2023-05-10T19:28:36;3.33;;;2.22;;
54745;SDS011;40640;48.130;11.356;2023-05-10T19:32:39;3.13;;;1.83;;
54745;SDS011;40640;48.130;11.356;2023-05-10T19:36:44;3.63;;;1.85;;
54745;SDS011;40640;48.130;11.356;2023-05-10T19:40:47;3.00;;;1.75;;
54745;SDS011;40640;48.130;11.356;2023-05-10T19:44:51;5.60;;;2.33;;
54745;SDS011;40640;48.130;11.356;2023-05-10T19:48:54;4.45;;;2.67;;
54745;SDS011;40640;48.130;11.356;2023-05-10T19:52:57;6.93;;;3.38;;
54745;SDS011;40640;48.130;11.356;2023-05-10T19:57:01;3.85;;;2.65;;
54745;SDS011;40640;48.130;11.356;2023-05-10T20:01:05;3.90;;;2.85;;
54745;SDS011;40640;48.130;11.356;2023-05-10T20:05:32;3.67;;;2.20;;
54745;SDS011;40640;48.130;11.356;2023-05-10T20:09:35;1.88;;;1.55;;
54745;SDS011;40640;48.130;11.356;2023-05-10T20:13:37;2.08;;;1.60;;
54745;SDS011;40640;48.130;11.356;2023-05-10T20:17:42;3.25;;;2.63;;
54745;SDS011;40640;48.130;11.356;2023-05-10T20:21:45;4.35;;;1.83;;
54745;SDS011;40640;48.130;11.356;2023-05-10T20:25:48;2.70;;;1.80;;
54745;SDS011;40640;48.130;11.356;2023-05-10T20:29:51;4.75;;;1.92;;
54745;SDS011;40640;48.130;11.356;2023-05-10T20:33:55;2.10;;;1.55;;
54745;SDS011;40640;48.130;11.356;2023-05-10T20:37:58;3.45;;;1.65;;
54745;SDS011;40640;48.130;11.356;2023-05-10T20:42:02;6.97;;;1.65;;
54745;SDS011;40640;48.130;11.356;2023-05-10T20:46:05;2.83;;;1.67;;
54745;SDS011;40640;48.130;11.356;2023-05-10T20:50:10;2.70;;;1.45;;
54745;SDS011;40640;48.130;11.356;2023-05-10T20:54:13;6.55;;;1.80;;
54745;SDS011;40640;48.130;11.356;2023-05-10T20:58:16;1.88;;;1.42;;
54745;SDS011;40640;48.130;11.356;2023-05-10T21:02:19;4.07;;;1.55;;
54745;SDS011;40640;48.130;11.356;2023-05-10T21:06:23;1.98;;;1.15;;
54745;SDS011;40640;48.130;11.356;2023-05-10T21:10:26;2.53;;;1.42;;
54745;SDS011;40640;48.130;11.356;2023-05-10T21:14:29;3.38;;;1.42;;
54745;SDS011;40640;48.130;11.356;2023-05-10T21:18:32;5.38;;;1.45;;
54745;SDS011;40640;48.130;11.356;2023-05-10T21:22:36;2.95;;;1.30;;
54745;SDS011;40640;48.130;11.356;2023-05-10T21:26:39;3.78;;;1.42;;
54745;SDS011;40640;48.130;11.356;2023-05-10T21:30:42;2.08;;;1.35;;
54745;SDS011;40640;48.130;11.356;2023-05-10T21:34:45;4.10;;;1.17;;
54745;SDS011;40640;48.130;11.356;2023-05-10T21:38:49;1.67;;;1.30;;
54745;SDS011;40640;48.130;11.356;2023-05-10T21:42:52;2.20;;;1.15;;
54745;SDS011;40640;48.130;11.356;2023-05-10T21:46:55;2.30;;;1.23;;
54745;SDS011;40640;48.130;11.356;2023-05-10T21:50:58;2.55;;;1.30;;
54745;SDS011;40640;48.130;11.356;2023-05-10T21:55:03;2.38;;;1.33;;
54745;SDS011;40640;48.130;11.356;2023-05-10T21:59:08;2.45;;;1.40;;
54745;SDS011;40640;48.130;11.356;2023-05-10T22:03:11;1.38;;;1.05;;
54745;SDS011;40640;48.130;11.356;2023-05-10T22:07:14;3.45;;;1.50;;
54745;SDS011;40640;48.130;11.356;2023-05-10T22:11:19;2.53;;;1.38;;
54745;SDS011;40640;48.130;11.356;2023-05-10T22:15:22;1.90;;;1.50;;
54745;SDS011;40640;48.130;11.356;2023-05-10T22:19:25;2.97;;;1.70;;
54745;SDS011;40640;48.130;11.356;2023-05-10T22:23:31;2.42;;;1.40;;
54745;SDS011;40640;48.130;11.356;2023-05-10T22:27:35;4.68;;;2.38;;
54745;SDS011;40640;48.130;11.356;2023-05-10T22:31:38;4.32;;;2.40;;
54745;SDS011;40640;48.130;11.356;2023-05-10T22:35:41;4.70;;;2.17;;
54745;SDS011;40640;48.130;11.356;2023-05-10T22:39:44;6.82;;;1.30;;
54745;SDS011;40640;48.130;11.356;2023-05-10T22:43:48;4.15;;;2.38;;
54745;SDS011;40640;48.130;11.356;2023-05-10T22:47:51;3.08;;;1.60;;
54745;SDS011;40640;48.130;11.356;2023-05-10T22:51:54;3.58;;;1.63;;
54745;SDS011;40640;48.130;11.356;2023-05-10T22:55:57;1.70;;;1.60;;
54745;SDS011;40640;48.130;11.356;2023-05-10T23:00:02;5.25;;;2.15;;
54745;SDS011;40640;48.130;11.356;2023-05-10T23:04:05;2.70;;;1.33;;
54745;SDS011;40640;48.130;11.356;2023-05-10T23:08:08;3.72;;;1.73;;
54745;SDS011;40640;48.130;11.356;2023-05-10T23:12:11;4.93;;;1.30;;
54745;SDS011;40640;48.130;11.356;2023-05-10T23:16:15;7.10;;;1.55;;
54745;SDS011;40640;48.130;11.356;2023-05-10T23:20:18;4.43;;;1.70;;
54745;SDS011;40640;48.130;11.356;2023-05-10T23:24:22;4.30;;;1.73;;
54745;SDS011;40640;48.130;11.356;2023-05-10T23:28:25;3.00;;;1.58;;
54745;SDS011;40640;48.130;11.356;2023-05-10T23:32:29;2.67;;;1.60;;
54745;SDS011;40640;48.130;11.356;2023-05-10T23:36:33;4.13;;;1.50;;
54745;SDS011;40640;48.130;11.356;2023-05-10T23:40:36;1.10;;;1.10;;
54745;SDS011;40640;48.130;11.356;2023-05-10T23:44:38;6.15;;;1.40;;
54745;SDS011;40640;48.130;11.356;2023-05-10T23:48:43;3.08;;;1.90;;
54745;SDS011;40640;48.130;11.356;2023-05-10T23:52:45;4.72;;;1.90;;
54745;SDS011;40640;48.130;11.356;2023-05-10T23:56:48;2.22;;;1.73;;
